createdAt,value
2019-05-30T00:02:08.924Z,1.67
2019-05-30T00:04:37.667Z,0.90
2019-05-30T00:07:06.318Z,1.07
2019-05-30T00:09:34.996Z,0.90
2019-05-30T00:12:04.892Z,0.77
2019-05-30T00:14:34.922Z,1.00
2019-05-30T00:17:04.992Z,0.93
2019-05-30T00:19:34.238Z,0.93
2019-05-30T00:22:03.866Z,0.87
2019-05-30T00:24:33.517Z,0.90
2019-05-30T00:27:02.457Z,1.20
2019-05-30T00:29:31.221Z,1.00
2019-05-30T00:31:59.868Z,0.90
2019-05-30T00:34:28.548Z,1.00
2019-05-30T00:36:57.668Z,0.73
2019-05-30T00:39:26.826Z,0.90
2019-05-30T00:41:56.004Z,1.00
2019-05-30T00:44:25.003Z,0.80
2019-05-30T00:46:54.379Z,1.00
2019-05-30T00:49:23.286Z,1.07
2019-05-30T00:51:51.934Z,0.80
2019-05-30T00:54:20.619Z,1.00
2019-05-30T00:56:49.280Z,0.90
2019-05-30T00:59:17.936Z,0.80
2019-05-30T01:01:46.587Z,0.80
2019-05-30T01:04:15.347Z,1.10
2019-05-30T01:06:44.051Z,0.83
2019-05-30T01:09:12.751Z,1.00
2019-05-30T01:11:41.396Z,0.90
2019-05-30T01:14:10.087Z,0.70
2019-05-30T01:16:41.838Z,0.90
2019-05-30T01:19:09.171Z,1.00
2019-05-30T01:21:37.847Z,1.40
2019-05-30T01:24:07.733Z,0.77
2019-05-30T01:26:36.855Z,0.80
2019-05-30T01:29:05.606Z,0.70
2019-05-30T01:31:34.550Z,1.30
2019-05-30T01:34:03.713Z,1.10
2019-05-30T01:36:32.720Z,1.00
2019-05-30T01:39:01.786Z,0.97
2019-05-30T01:41:30.905Z,1.10
2019-05-30T01:43:59.796Z,1.10
2019-05-30T01:46:29.158Z,1.20
2019-05-30T01:48:58.176Z,0.90
2019-05-30T01:51:27.309Z,1.10
2019-05-30T01:53:55.967Z,1.00
2019-05-30T01:56:24.613Z,0.93
2019-05-30T01:58:53.299Z,1.30
2019-05-30T02:01:25.227Z,1.00
2019-05-30T02:03:52.388Z,1.10
2019-05-30T02:06:21.046Z,0.90
2019-05-30T02:08:49.712Z,1.00
2019-05-30T02:11:18.388Z,1.13
2019-05-30T02:13:47.030Z,0.87
2019-05-30T02:16:15.683Z,1.10
2019-05-30T02:18:44.797Z,1.10
2019-05-30T02:21:13.480Z,1.23
2019-05-30T02:23:42.169Z,1.10
2019-05-30T02:26:11.364Z,1.10
2019-05-30T02:28:40.039Z,1.10
2019-05-30T02:31:09.646Z,1.10
2019-05-30T02:33:39.054Z,1.17
2019-05-30T02:36:08.562Z,1.10
2019-05-30T02:38:38.083Z,1.20
2019-05-30T02:41:08.133Z,1.30
2019-05-30T02:43:37.100Z,1.23
2019-05-30T02:46:07.399Z,1.10
2019-05-30T02:48:56.853Z,1.17
2019-05-30T02:51:08.015Z,1.10
2019-05-30T02:53:36.968Z,1.10
2019-05-30T02:56:05.975Z,1.07
2019-05-30T02:58:36.096Z,1.10
2019-05-30T03:01:06.972Z,1.13
2019-05-30T03:03:35.126Z,1.30
2019-05-30T03:06:04.572Z,1.50
2019-05-30T03:08:34.245Z,1.33
2019-05-30T03:11:04.464Z,1.30
2019-05-30T03:13:33.354Z,1.37
2019-05-30T03:16:02.858Z,1.17
2019-05-30T03:18:32.485Z,1.17
2019-05-30T03:21:01.138Z,1.40
2019-05-30T03:23:31.564Z,1.40
2019-05-30T03:26:00.237Z,1.30
2019-05-30T03:28:28.953Z,1.20
2019-05-30T03:30:57.677Z,1.40
2019-05-30T03:33:39.378Z,1.33
2019-05-30T03:35:56.792Z,1.20
2019-05-30T03:38:25.434Z,1.50
2019-05-30T03:40:54.086Z,1.40
2019-05-30T03:43:22.730Z,1.60
2019-05-30T03:45:51.413Z,1.60
2019-05-30T03:48:20.060Z,1.80
2019-05-30T03:50:51.149Z,1.60
2019-05-30T03:53:19.830Z,1.53
2019-05-30T03:55:52.016Z,1.70
2019-05-30T03:58:27.384Z,1.70
2019-05-30T04:00:56.933Z,1.50
2019-05-30T04:03:40.019Z,1.90
2019-05-30T04:06:16.607Z,1.60
2019-05-30T04:08:47.519Z,1.80
2019-05-30T04:11:19.742Z,1.87
2019-05-30T04:13:50.354Z,1.60
2019-05-30T04:16:19.682Z,1.80
2019-05-30T04:18:48.967Z,1.73
2019-05-30T04:21:21.029Z,1.57
2019-05-30T04:23:48.015Z,1.70
2019-05-30T04:26:18.213Z,1.77
2019-05-30T04:28:47.061Z,2.20
2019-05-30T04:31:17.247Z,1.80
2019-05-30T04:33:46.117Z,2.10
2019-05-30T04:36:16.807Z,1.90
2019-05-30T04:38:45.212Z,2.30
2019-05-30T04:41:15.738Z,1.80
2019-05-30T04:43:44.253Z,2.23
2019-05-30T04:46:16.007Z,1.80
2019-05-30T04:48:43.296Z,2.03
2019-05-30T04:51:12.602Z,2.10
2019-05-30T04:53:42.332Z,2.10
2019-05-30T04:56:12.523Z,2.00
2019-05-30T04:58:42.481Z,2.10
2019-05-30T05:01:13.133Z,2.30
2019-05-30T05:03:46.279Z,2.20
2019-05-30T05:06:13.780Z,2.00
2019-05-30T05:08:43.092Z,2.10
2019-05-30T05:11:14.159Z,2.27
2019-05-30T05:13:42.115Z,1.63
2019-05-30T05:16:23.127Z,2.60
2019-05-30T05:18:41.148Z,2.47
2019-05-30T05:21:09.801Z,1.90
2019-05-30T05:23:38.726Z,2.00
2019-05-30T05:26:07.364Z,2.40
2019-05-30T05:28:36.049Z,2.13
2019-05-30T05:31:04.696Z,2.13
2019-05-30T05:33:33.329Z,2.40
2019-05-30T05:36:02.032Z,2.43
2019-05-30T05:38:30.736Z,2.10
2019-05-30T05:40:59.410Z,2.30
2019-05-30T05:43:28.681Z,2.27
2019-05-30T05:45:57.853Z,2.33
2019-05-30T05:48:26.500Z,2.50
2019-05-30T05:50:55.153Z,2.50
2019-05-30T05:53:24.950Z,2.20
2019-05-30T05:55:54.245Z,2.20
2019-05-30T05:58:23.885Z,2.07
2019-05-30T06:00:53.381Z,2.47
2019-05-30T06:03:22.344Z,2.00
2019-05-30T06:05:53.262Z,2.07
2019-05-30T06:08:21.871Z,2.30
2019-05-30T06:10:50.544Z,2.40
2019-05-30T06:13:19.188Z,2.40
2019-05-30T06:15:47.905Z,2.40
2019-05-30T06:18:17.986Z,2.33
2019-05-30T06:20:46.813Z,2.23
2019-05-30T06:23:15.476Z,2.60
2019-05-30T06:25:44.138Z,2.70
2019-05-30T06:28:13.563Z,2.50
2019-05-30T06:30:42.199Z,2.50
2019-05-30T06:33:10.880Z,3.00
2019-05-30T06:35:39.542Z,2.97
2019-05-30T06:38:08.185Z,3.00
2019-05-30T06:40:36.969Z,2.77
2019-05-30T06:43:05.675Z,2.87
2019-05-30T06:45:34.314Z,3.87
2019-05-30T06:48:03.015Z,3.70
2019-05-30T06:50:31.655Z,4.00
2019-05-30T06:53:00.308Z,4.00
2019-05-30T06:55:29.588Z,4.67
2019-05-30T06:57:58.400Z,4.43
2019-05-30T07:00:28.087Z,4.57
2019-05-30T07:02:57.260Z,6.53
2019-05-30T07:05:28.507Z,6.73
2019-05-30T07:07:56.884Z,6.23
2019-05-30T07:10:26.704Z,6.83
2019-05-30T07:12:55.882Z,5.87
2019-05-30T07:15:27.241Z,6.50
2019-05-30T07:17:55.937Z,7.50
2019-05-30T07:20:25.504Z,9.60
2019-05-30T07:22:55.046Z,8.70
2019-05-30T07:25:23.868Z,9.07
2019-05-30T07:27:53.281Z,8.43
2019-05-30T07:30:21.987Z,8.80
2019-05-30T07:32:50.626Z,8.30
2019-05-30T07:35:19.564Z,7.37
2019-05-30T07:37:48.216Z,9.03
2019-05-30T07:40:19.698Z,10.07
2019-05-30T07:42:48.911Z,8.10
2019-05-30T07:45:18.056Z,8.13
2019-05-30T07:47:46.719Z,8.13
2019-05-30T07:50:15.420Z,7.33
2019-05-30T07:52:44.079Z,6.70
2019-05-30T07:55:12.795Z,6.77
2019-05-30T07:57:41.914Z,6.03
2019-05-30T08:00:10.943Z,8.27
2019-05-30T08:02:39.731Z,6.77
2019-05-30T08:05:22.806Z,6.00
2019-05-30T08:07:39.051Z,7.00
2019-05-30T08:10:10.194Z,6.80
2019-05-30T08:12:38.869Z,6.70
2019-05-30T08:15:07.550Z,6.80
2019-05-30T08:17:36.211Z,5.83
2019-05-30T08:20:05.192Z,5.67
2019-05-30T08:22:34.167Z,6.20
2019-05-30T08:25:02.960Z,6.37
2019-05-30T08:27:32.356Z,6.40
2019-05-30T08:30:01.384Z,6.47
2019-05-30T08:32:30.565Z,7.40
2019-05-30T08:34:59.562Z,7.47
2019-05-30T08:37:28.955Z,7.60
2019-05-30T08:39:57.672Z,6.93
2019-05-30T08:42:27.951Z,7.63
2019-05-30T08:44:56.710Z,7.23
2019-05-30T08:47:25.442Z,6.57
2019-05-30T08:49:54.082Z,6.40
2019-05-30T08:52:22.742Z,7.30
2019-05-30T08:54:51.411Z,7.50
2019-05-30T08:57:20.071Z,6.70
2019-05-30T08:59:48.773Z,6.53
2019-05-30T09:02:17.440Z,6.67
2019-05-30T09:04:46.120Z,6.73
2019-05-30T09:07:14.793Z,6.50
2019-05-30T09:09:44.342Z,7.07
2019-05-30T09:12:13.486Z,7.20
2019-05-30T09:14:42.884Z,6.73
2019-05-30T09:17:12.148Z,6.00
2019-05-30T09:19:41.498Z,6.03
2019-05-30T09:22:10.165Z,5.93
2019-05-30T09:24:40.306Z,6.70
2019-05-30T09:27:09.287Z,6.03
2019-05-30T09:29:39.787Z,6.40
2019-05-30T09:34:16.653Z,5.95
2019-05-30T09:36:45.321Z,5.73
2019-05-30T09:39:13.971Z,5.73
2019-05-30T09:41:43.763Z,5.97
2019-05-30T09:44:12.848Z,6.13
2019-05-30T09:46:42.538Z,6.80
2019-05-30T09:49:11.914Z,6.10
2019-05-30T09:51:41.908Z,6.90
2019-05-30T09:54:10.968Z,6.73
2019-05-30T09:56:39.627Z,6.23
2019-05-30T09:59:08.283Z,6.70
2019-05-30T10:01:37.056Z,7.47
2019-05-30T10:04:05.808Z,7.30
2019-05-30T10:06:34.479Z,7.77
2019-05-30T10:09:04.820Z,7.30
2019-05-30T10:11:35.880Z,7.40
2019-05-30T10:14:04.579Z,6.70
2019-05-30T10:16:33.243Z,7.40
2019-05-30T10:19:01.888Z,6.80
2019-05-30T10:21:30.529Z,6.53
2019-05-30T10:23:59.192Z,7.90
2019-05-30T10:26:27.833Z,6.63
2019-05-30T10:28:57.404Z,7.70
2019-05-30T10:31:26.794Z,6.83
2019-05-30T10:33:56.840Z,7.30
2019-05-30T10:36:25.844Z,6.70
2019-05-30T10:38:55.922Z,7.20
2019-05-30T10:41:24.883Z,7.13
2019-05-30T10:43:53.572Z,7.50
2019-05-30T10:46:22.248Z,7.20
2019-05-30T10:48:51.169Z,7.10
2019-05-30T10:51:21.247Z,7.23
2019-05-30T10:53:50.892Z,7.13
2019-05-30T10:56:20.317Z,7.10
2019-05-30T10:58:50.652Z,7.10
2019-05-30T11:01:19.773Z,7.37
2019-05-30T11:03:48.785Z,6.37
2019-05-30T11:06:42.394Z,6.80
2019-05-30T11:09:11.028Z,7.27
2019-05-30T11:11:39.721Z,7.50
2019-05-30T11:14:08.419Z,6.00
2019-05-30T11:16:37.081Z,6.13
2019-05-30T11:19:07.496Z,6.63
2019-05-30T11:21:36.292Z,6.60
2019-05-30T11:24:04.956Z,5.87
2019-05-30T11:26:33.645Z,5.53
2019-05-30T11:29:02.300Z,5.93
2019-05-30T11:31:30.979Z,6.40
2019-05-30T11:33:59.647Z,5.63
2019-05-30T11:36:28.306Z,5.70
2019-05-30T11:38:57.445Z,5.97
2019-05-30T11:41:26.479Z,5.17
2019-05-30T11:43:55.571Z,5.50
2019-05-30T11:46:24.702Z,4.30
2019-05-30T11:48:53.698Z,5.20
2019-05-30T11:51:22.384Z,4.93
2019-05-30T11:53:51.816Z,5.13
2019-05-30T11:56:21.103Z,5.37
2019-05-30T11:58:49.895Z,5.20
2019-05-30T12:01:18.548Z,4.97
2019-05-30T12:03:47.210Z,4.37
2019-05-30T12:06:15.887Z,5.77
2019-05-30T12:08:44.552Z,4.70
2019-05-30T12:11:13.200Z,4.93
2019-05-30T12:13:41.850Z,4.70
2019-05-30T12:16:10.510Z,5.20
2019-05-30T12:18:39.142Z,5.70
2019-05-30T12:21:07.816Z,6.13
2019-05-30T12:23:36.489Z,6.37
2019-05-30T12:26:05.257Z,5.80
2019-05-30T12:28:33.908Z,6.50
2019-05-30T12:31:06.087Z,6.80
2019-05-30T12:33:32.949Z,6.93
2019-05-30T12:36:02.699Z,8.00
2019-05-30T12:38:31.509Z,7.77
2019-05-30T12:41:00.888Z,8.10
2019-05-30T12:43:29.880Z,7.67
2019-05-30T12:45:59.110Z,7.30
2019-05-30T12:48:28.015Z,8.20
2019-05-30T12:50:57.217Z,7.80
2019-05-30T12:53:26.180Z,7.97
2019-05-30T12:55:54.860Z,8.53
2019-05-30T12:58:23.493Z,9.30
2019-05-30T13:00:52.843Z,9.07
2019-05-30T13:03:21.625Z,8.83
2019-05-30T13:05:50.288Z,9.53
2019-05-30T13:08:21.972Z,10.27
2019-05-30T13:10:49.328Z,9.60
2019-05-30T13:13:17.995Z,10.60
2019-05-30T13:15:46.640Z,10.03
2019-05-30T13:18:15.323Z,9.60
2019-05-30T13:20:44.072Z,9.10
2019-05-30T13:23:12.729Z,8.80
2019-05-30T13:25:41.394Z,8.17
2019-05-30T13:28:10.068Z,8.23
2019-05-30T13:30:38.729Z,7.33
2019-05-30T13:33:07.384Z,6.90
2019-05-30T13:35:36.115Z,6.67
2019-05-30T13:38:05.341Z,7.10
2019-05-30T13:40:34.039Z,5.87
2019-05-30T13:43:03.846Z,6.00
2019-05-30T13:45:32.658Z,6.30
2019-05-30T13:48:02.380Z,7.27
2019-05-30T13:50:31.257Z,6.70
2019-05-30T13:53:00.929Z,5.90
2019-05-30T13:55:29.787Z,6.63
2019-05-30T13:57:59.474Z,6.80
2019-05-30T14:00:28.379Z,6.47
2019-05-30T14:02:57.051Z,6.40
2019-05-30T14:05:25.684Z,6.57
2019-05-30T14:07:54.351Z,6.60
2019-05-30T14:10:23.068Z,6.57
2019-05-30T14:12:51.700Z,6.47
2019-05-30T14:15:22.006Z,6.27
2019-05-30T14:17:50.663Z,6.17
2019-05-30T14:20:19.382Z,6.37
2019-05-30T14:22:48.026Z,5.77
2019-05-30T14:25:16.675Z,5.53
2019-05-30T14:27:45.402Z,4.97
2019-05-30T14:30:14.088Z,5.33
2019-05-30T14:32:42.751Z,5.50
2019-05-30T14:35:13.596Z,5.43
2019-05-30T14:37:41.914Z,5.40
2019-05-30T14:40:11.093Z,4.57
2019-05-30T14:42:40.607Z,4.70
2019-05-30T14:45:10.906Z,4.90
2019-05-30T14:47:39.570Z,4.27
2019-05-30T14:50:09.004Z,4.53
2019-05-30T14:52:37.759Z,4.70
2019-05-30T14:55:06.806Z,4.97
2019-05-30T14:57:36.040Z,4.20
2019-05-30T15:00:05.549Z,3.90
2019-05-30T15:02:34.176Z,3.77
2019-05-30T15:05:02.864Z,3.57
2019-05-30T15:07:31.529Z,3.37
2019-05-30T15:10:00.198Z,3.67
2019-05-30T15:12:29.127Z,3.77
2019-05-30T15:14:57.791Z,3.20
2019-05-30T15:17:26.559Z,3.10
2019-05-30T15:19:55.235Z,3.30
2019-05-30T15:22:23.893Z,3.13
2019-05-30T15:24:52.610Z,3.47
2019-05-30T15:27:21.792Z,3.70
2019-05-30T15:29:50.463Z,3.30
2019-05-30T15:32:19.130Z,2.97
2019-05-30T15:34:47.784Z,4.07
2019-05-30T15:37:16.978Z,3.17
2019-05-30T15:39:46.613Z,3.43
2019-05-30T15:42:19.958Z,3.47
2019-05-30T15:44:45.733Z,3.60
2019-05-30T15:47:14.579Z,3.80
2019-05-30T15:49:43.672Z,3.47
2019-05-30T15:52:13.327Z,4.40
2019-05-30T15:54:42.647Z,3.77
2019-05-30T15:57:13.254Z,4.07
2019-05-30T15:59:42.684Z,3.10
2019-05-30T16:02:11.947Z,3.90
2019-05-30T16:04:40.639Z,3.93
2019-05-30T16:07:10.492Z,3.53
2019-05-30T16:09:46.986Z,4.07
2019-05-30T16:12:11.006Z,3.80
2019-05-30T16:14:40.345Z,4.03
2019-05-30T16:17:11.474Z,4.30
2019-05-30T16:19:40.503Z,3.93
2019-05-30T16:22:09.185Z,4.43
2019-05-30T16:24:37.851Z,4.00
2019-05-30T16:27:06.537Z,4.60
2019-05-30T16:29:35.193Z,3.87
2019-05-30T16:32:03.980Z,3.90
2019-05-30T16:34:32.992Z,4.33
2019-05-30T16:37:02.255Z,4.87
2019-05-30T16:39:30.956Z,4.83
2019-05-30T16:41:59.636Z,4.63
2019-05-30T16:44:28.272Z,4.70
2019-05-30T16:46:56.948Z,4.53
2019-05-30T16:49:26.851Z,4.63
2019-05-30T16:51:55.918Z,5.20
2019-05-30T16:54:24.563Z,4.63
2019-05-30T16:56:53.228Z,5.47
2019-05-30T16:59:22.857Z,5.10
2019-05-30T17:01:58.008Z,5.73
2019-05-30T17:04:23.404Z,6.20
2019-05-30T17:06:52.050Z,5.87
2019-05-30T17:09:21.631Z,5.60
2019-05-30T17:11:51.170Z,6.03
2019-05-30T17:14:19.832Z,6.30
2019-05-30T17:16:48.504Z,5.60
2019-05-30T17:19:18.282Z,5.70
2019-05-30T17:21:46.983Z,5.13
2019-05-30T17:24:16.841Z,5.37
2019-05-30T17:26:45.701Z,5.03
2019-05-30T17:29:14.355Z,5.23
2019-05-30T17:31:43.018Z,5.23
2019-05-30T17:34:11.663Z,4.93
2019-05-30T17:36:40.369Z,5.20
2019-05-30T17:39:09.325Z,5.47
2019-05-30T17:41:37.967Z,5.20
2019-05-30T17:44:06.629Z,5.53
2019-05-30T17:46:35.317Z,5.03
2019-05-30T17:49:03.984Z,4.93
2019-05-30T17:51:32.625Z,5.07
2019-05-30T17:54:01.266Z,5.10
2019-05-30T17:56:30.281Z,4.90
2019-05-30T17:58:59.883Z,4.67
2019-05-30T18:01:28.532Z,4.97
2019-05-30T18:03:57.179Z,4.40
2019-05-30T18:06:26.562Z,4.37
2019-05-30T18:08:55.392Z,4.97
2019-05-30T18:11:24.952Z,4.57
2019-05-30T18:13:54.495Z,4.57
2019-05-30T18:16:23.151Z,4.67
2019-05-30T18:18:51.849Z,4.37
2019-05-30T18:21:21.234Z,4.33
2019-05-30T18:23:50.031Z,4.47
2019-05-30T18:26:18.688Z,3.90
2019-05-30T18:28:47.372Z,4.23
2019-05-30T18:31:16.101Z,3.97
2019-05-30T18:33:44.760Z,4.00
2019-05-30T18:36:13.457Z,4.07
2019-05-30T18:38:42.238Z,4.37
2019-05-30T18:41:14.207Z,4.43
2019-05-30T18:43:41.450Z,4.00
2019-05-30T18:46:10.167Z,4.17
2019-05-30T18:48:38.820Z,3.90
2019-05-30T18:51:08.320Z,4.03
2019-05-30T18:53:36.990Z,3.57
2019-05-30T18:56:05.679Z,4.10
2019-05-30T18:58:34.349Z,4.47
2019-05-30T19:01:02.991Z,3.90
2019-05-30T19:03:33.307Z,3.83
2019-05-30T19:06:02.111Z,4.10
2019-05-30T19:08:32.006Z,3.80
2019-05-30T19:11:01.145Z,4.07
2019-05-30T19:13:49.124Z,3.97
2019-05-30T19:16:17.883Z,3.43
2019-05-30T19:18:46.537Z,3.87
2019-05-30T19:21:15.669Z,3.60
2019-05-30T19:23:44.408Z,3.67
2019-05-30T19:26:13.090Z,3.50
2019-05-30T19:28:41.819Z,3.47
2019-05-30T19:31:10.480Z,3.90
2019-05-30T19:33:39.137Z,3.37
2019-05-30T19:36:07.834Z,3.50
2019-05-30T19:38:37.629Z,3.80
2019-05-30T19:41:06.338Z,3.63
2019-05-30T19:43:35.898Z,3.80
2019-05-30T19:46:04.790Z,3.70
2019-05-30T19:48:34.418Z,4.10
2019-05-30T19:51:03.248Z,4.27
2019-05-30T19:53:32.848Z,3.70
2019-05-30T19:56:01.998Z,4.27
2019-05-30T19:58:31.570Z,4.03
2019-05-30T20:01:01.015Z,4.07
2019-05-30T20:03:37.545Z,4.00
2019-05-30T20:06:00.194Z,3.77
2019-05-30T20:08:44.669Z,3.50
2019-05-30T20:10:59.291Z,3.43
2019-05-30T20:13:27.953Z,3.20
2019-05-30T20:15:56.621Z,4.23
2019-05-30T20:18:25.278Z,3.60
2019-05-30T20:20:57.881Z,4.17
2019-05-30T20:23:24.735Z,3.47
2019-05-30T20:25:53.404Z,3.57
2019-05-30T20:28:22.329Z,3.57
2019-05-30T20:30:50.991Z,3.37
2019-05-30T20:33:19.668Z,4.10
2019-05-30T20:35:48.397Z,4.10
2019-05-30T20:38:17.059Z,3.93
2019-05-30T20:40:45.713Z,3.47
2019-05-30T20:43:14.358Z,3.57
2019-05-30T20:45:48.003Z,2.97
2019-05-30T20:48:13.648Z,3.50
2019-05-30T20:50:43.257Z,3.27
2019-05-30T20:53:12.025Z,3.50
2019-05-30T20:55:40.699Z,3.10
2019-05-30T20:58:09.354Z,3.73
2019-05-30T21:00:40.102Z,3.57
2019-05-30T21:03:09.223Z,3.73
2019-05-30T21:05:37.902Z,3.37
2019-05-30T21:08:06.658Z,3.30
2019-05-30T21:10:36.909Z,3.30
2019-05-30T21:13:05.981Z,3.47
2019-05-30T21:15:35.568Z,3.30
2019-05-30T21:18:05.287Z,3.13
2019-05-30T21:20:33.926Z,3.03
2019-05-30T21:23:02.591Z,3.17
2019-05-30T21:25:31.263Z,3.20
2019-05-30T21:27:59.942Z,3.80
2019-05-30T21:30:28.608Z,3.13
2019-05-30T21:32:57.277Z,3.10
2019-05-30T21:35:26.210Z,3.20
2019-05-30T21:37:55.659Z,3.23
2019-05-30T21:40:24.293Z,3.20
2019-05-30T21:43:04.620Z,3.30
2019-05-30T21:45:23.328Z,2.87
2019-05-30T21:47:51.964Z,3.00
2019-05-30T21:50:20.629Z,3.00
2019-05-30T21:52:49.798Z,3.30
2019-05-30T21:55:18.519Z,2.90
2019-05-30T21:57:48.151Z,3.10
2019-05-30T22:00:19.191Z,2.93
2019-05-30T22:02:53.102Z,2.60
2019-05-30T22:05:21.740Z,3.10
2019-05-30T22:07:51.229Z,3.03
2019-05-30T22:10:20.422Z,2.90
2019-05-30T22:12:49.711Z,3.20
2019-05-30T22:15:18.686Z,2.90
2019-05-30T22:17:47.909Z,2.83
2019-05-30T22:20:16.837Z,3.03
2019-05-30T22:22:46.169Z,3.00
2019-05-30T22:25:14.918Z,3.43
2019-05-30T22:27:44.479Z,3.10
2019-05-30T22:30:13.221Z,3.47
2019-05-30T22:32:42.574Z,2.83
2019-05-30T22:35:11.365Z,3.00
2019-05-30T22:37:40.015Z,2.93
2019-05-30T22:40:08.719Z,3.07
2019-05-30T22:42:37.374Z,2.90
2019-05-30T22:45:06.064Z,3.23
2019-05-30T22:47:34.736Z,3.23
2019-05-30T22:50:03.408Z,3.07
2019-05-30T22:52:32.049Z,2.73
2019-05-30T22:55:00.720Z,3.87
2019-05-30T22:57:29.381Z,3.10
2019-05-30T22:59:58.014Z,2.77
2019-05-30T23:02:26.646Z,2.90
2019-05-30T23:04:56.350Z,3.07
2019-05-30T23:07:25.543Z,2.90
2019-05-30T23:09:54.196Z,3.30
2019-05-30T23:12:22.874Z,2.90
2019-05-30T23:14:52.253Z,3.00
2019-05-30T23:17:21.145Z,2.87
2019-05-30T23:19:51.286Z,2.93
2019-05-30T23:22:20.207Z,3.30
2019-05-30T23:24:49.232Z,3.10
2019-05-30T23:27:18.313Z,3.23
2019-05-30T23:29:47.684Z,2.80
2019-05-30T23:32:16.504Z,3.23
2019-05-30T23:34:45.208Z,3.00
2019-05-30T23:37:13.875Z,3.50
2019-05-30T23:39:42.531Z,3.00
2019-05-30T23:42:11.193Z,3.30
2019-05-30T23:44:40.548Z,2.90
2019-05-30T23:47:09.223Z,4.73
2019-05-30T23:49:38.179Z,3.30
2019-05-30T23:52:06.828Z,3.17
2019-05-30T23:54:35.475Z,3.60
2019-05-30T23:57:04.124Z,3.60
2019-05-30T23:59:32.779Z,3.50
